createdAt,value
2022-10-22T00:01:12.942Z,100639.25
2022-10-22T00:03:41.267Z,100638.88
2022-10-22T00:06:10.978Z,100641.56
2022-10-22T00:08:39.295Z,100629.88
2022-10-22T00:11:14.601Z,100630.94
2022-10-22T00:13:43.610Z,100640.16
2022-10-22T00:16:12.040Z,100640.75
2022-10-22T00:18:40.640Z,100636.25
2022-10-22T00:21:10.617Z,100656.72
2022-10-22T00:23:42.582Z,100649.50
2022-10-22T00:26:11.380Z,100647.75
2022-10-22T00:28:40.342Z,100655.53
2022-10-22T00:31:08.535Z,100649.06
2022-10-22T00:33:36.738Z,100651.59
2022-10-22T00:36:05.427Z,100649.88
2022-10-22T00:38:35.008Z,100646.84
2022-10-22T00:41:03.243Z,100651.09
2022-10-22T00:43:31.549Z,100644.09
2022-10-22T00:45:59.709Z,100645.50
2022-10-22T00:48:32.123Z,100636.81
2022-10-22T00:51:04.041Z,100637.28
2022-10-22T00:53:42.550Z,100640.19
2022-10-22T00:56:11.712Z,100634.16
2022-10-22T00:58:46.358Z,100641.34
2022-10-22T01:01:20.071Z,100641.59
2022-10-22T01:03:48.765Z,100640.09
2022-10-22T01:06:24.989Z,100640.44
2022-10-22T01:09:06.318Z,100647.53
2022-10-22T01:11:48.830Z,100634.91
2022-10-22T01:14:26.263Z,100634.81
2022-10-22T01:17:05.119Z,100632.69
2022-10-22T01:19:51.926Z,100631.78
2022-10-22T01:22:30.083Z,100633.75
2022-10-22T01:25:06.591Z,100630.13
2022-10-22T01:27:56.729Z,100621.16
2022-10-22T01:30:27.175Z,100630.97
2022-10-22T01:33:00.516Z,100627.28
2022-10-22T01:38:10.225Z,100613.75
2022-10-22T01:40:38.804Z,100618.16
2022-10-22T01:43:10.161Z,100620.03
2022-10-22T01:45:44.531Z,100615.00
2022-10-22T01:48:32.041Z,100611.94
2022-10-22T01:51:21.208Z,100621.16
2022-10-22T01:53:55.321Z,100613.63
2022-10-22T01:56:41.237Z,100614.34
2022-10-22T01:59:18.831Z,100612.69
2022-10-22T02:01:59.107Z,100596.28
2022-10-22T02:04:31.145Z,100608.59
2022-10-22T02:07:05.864Z,100607.03
2022-10-22T02:09:34.949Z,100613.19
2022-10-22T02:12:07.553Z,100612.91
2022-10-22T02:14:40.863Z,100601.81
2022-10-22T02:17:14.838Z,100612.16
2022-10-22T02:19:51.829Z,100612.91
2022-10-22T02:22:20.839Z,100615.25
2022-10-22T02:24:51.204Z,100615.84
2022-10-22T02:27:27.061Z,100611.41
2022-10-22T02:30:02.617Z,100614.31
2022-10-22T02:32:37.934Z,100613.38
2022-10-22T02:35:09.122Z,100617.75
2022-10-22T02:37:37.977Z,100624.41
2022-10-22T02:40:07.620Z,100617.16
2022-10-22T02:42:37.454Z,100615.41
2022-10-22T02:45:07.214Z,100620.78
2022-10-22T02:47:36.830Z,100625.69
2022-10-22T02:50:09.421Z,100630.00
2022-10-22T02:52:39.364Z,100625.22
2022-10-22T02:55:08.933Z,100624.75
2022-10-22T02:57:37.391Z,100624.75
2022-10-22T03:00:07.298Z,100628.19
2022-10-22T03:02:36.840Z,100634.06
2022-10-22T03:05:05.987Z,100637.06
2022-10-22T03:07:34.458Z,100628.53
2022-10-22T03:10:02.775Z,100629.59
2022-10-22T03:12:30.960Z,100634.31
2022-10-22T03:14:59.151Z,100629.88
2022-10-22T03:17:27.363Z,100630.72
2022-10-22T03:19:56.875Z,100622.84
2022-10-22T03:22:28.522Z,100627.78
2022-10-22T03:25:01.208Z,100636.59
2022-10-22T03:27:31.385Z,100628.75
2022-10-22T03:29:59.940Z,100633.50
2022-10-22T03:32:28.113Z,100632.38
2022-10-22T03:34:57.679Z,100637.34
2022-10-22T03:37:28.014Z,100640.69
2022-10-22T03:39:56.616Z,100643.47
2022-10-22T03:42:25.446Z,100647.63
2022-10-22T03:44:54.237Z,100645.72
2022-10-22T03:47:24.427Z,100650.22
2022-10-22T03:49:52.688Z,100642.78
2022-10-22T03:52:22.256Z,100647.81
2022-10-22T03:54:50.466Z,100652.00
2022-10-22T03:57:18.639Z,100646.50
2022-10-22T03:59:47.832Z,100654.28
2022-10-22T04:02:16.034Z,100657.75
2022-10-22T04:04:44.242Z,100661.03
2022-10-22T04:07:12.381Z,100663.13
2022-10-22T04:09:41.977Z,100655.50
2022-10-22T04:12:10.456Z,100672.91
2022-10-22T04:14:38.678Z,100671.13
2022-10-22T04:17:06.883Z,100674.94
2022-10-22T04:19:35.726Z,100670.84
2022-10-22T04:22:03.891Z,100664.16
2022-10-22T04:24:33.294Z,100669.16
2022-10-22T04:27:02.830Z,100673.88
2022-10-22T04:29:31.044Z,100674.47
2022-10-22T04:31:59.223Z,100680.50
2022-10-22T04:34:29.819Z,100682.88
2022-10-22T04:36:58.001Z,100689.22
2022-10-22T04:39:26.160Z,100692.53
2022-10-22T04:41:54.326Z,100689.38
2022-10-22T04:44:24.197Z,100691.69
2022-10-22T04:46:52.552Z,100691.72
2022-10-22T04:49:20.720Z,100693.59
2022-10-22T04:51:48.973Z,100687.75
2022-10-22T04:54:17.151Z,100678.25
2022-10-22T04:56:45.426Z,100679.38
2022-10-22T04:59:14.010Z,100683.72
2022-10-22T05:01:45.575Z,100689.88
2022-10-22T05:04:17.803Z,100685.50
2022-10-22T05:06:46.592Z,100693.78
2022-10-22T05:09:18.397Z,100697.16
2022-10-22T05:11:49.754Z,100699.28
2022-10-22T05:14:20.914Z,100706.44
2022-10-22T05:16:50.947Z,100707.66
2022-10-22T05:19:23.832Z,100713.97
2022-10-22T05:21:52.212Z,100710.34
2022-10-22T05:24:20.455Z,100717.31
2022-10-22T05:26:50.959Z,100714.72
2022-10-22T05:29:19.306Z,100715.00
2022-10-22T05:31:47.526Z,100707.94
2022-10-22T05:34:18.016Z,100716.13
2022-10-22T05:36:46.655Z,100715.38
2022-10-22T05:39:14.801Z,100723.56
2022-10-22T05:41:43.101Z,100732.22
2022-10-22T05:44:13.779Z,100724.31
2022-10-22T05:46:43.375Z,100727.19
2022-10-22T05:49:16.416Z,100733.88
2022-10-22T05:51:44.606Z,100737.22
2022-10-22T05:54:18.191Z,100726.47
2022-10-22T05:56:46.799Z,100734.03
2022-10-22T05:59:15.143Z,100734.06
2022-10-22T06:01:43.338Z,100743.06
2022-10-22T06:04:13.984Z,100747.69
2022-10-22T06:06:46.604Z,100736.53
2022-10-22T06:09:19.070Z,100741.84
2022-10-22T06:11:48.625Z,100746.97
2022-10-22T06:14:17.280Z,100753.88
2022-10-22T06:16:45.489Z,100750.00
2022-10-22T06:19:15.735Z,100752.56
2022-10-22T06:21:46.190Z,100756.53
2022-10-22T06:24:15.158Z,100767.25
2022-10-22T06:26:43.916Z,100767.72
2022-10-22T06:29:12.449Z,100764.91
2022-10-22T06:31:40.600Z,100767.34
2022-10-22T06:34:13.449Z,100769.97
2022-10-22T06:36:42.797Z,100777.78
2022-10-22T06:39:14.565Z,100773.31
2022-10-22T06:41:42.943Z,100788.00
2022-10-22T06:44:15.777Z,100786.13
2022-10-22T06:46:43.972Z,100790.81
2022-10-22T06:49:15.304Z,100795.81
2022-10-22T06:51:43.555Z,100802.81
2022-10-22T06:54:13.483Z,100809.94
2022-10-22T06:56:41.880Z,100820.16
2022-10-22T06:59:10.144Z,100817.03
2022-10-22T07:01:39.714Z,100823.16
2022-10-22T07:04:08.966Z,100832.78
2022-10-22T07:06:37.491Z,100837.84
2022-10-22T07:09:06.190Z,100823.53
2022-10-22T07:11:45.748Z,100838.53
2022-10-22T07:14:15.872Z,100835.69
2022-10-22T07:16:45.717Z,100842.03
2022-10-22T07:19:14.941Z,100843.75
2022-10-22T07:21:43.098Z,100846.88
2022-10-22T07:24:11.267Z,100852.25
2022-10-22T07:26:40.804Z,100857.97
2022-10-22T07:29:10.021Z,100853.59
2022-10-22T07:31:38.190Z,100869.50
2022-10-22T07:34:06.720Z,100867.88
2022-10-22T07:36:35.066Z,100866.91
2022-10-22T07:39:04.498Z,100871.09
2022-10-22T07:41:33.194Z,100878.84
2022-10-22T07:44:02.751Z,100882.06
2022-10-22T07:46:30.920Z,100880.66
2022-10-22T07:48:59.037Z,100891.16
2022-10-22T07:51:27.820Z,100889.16
2022-10-22T07:53:56.115Z,100889.25
2022-10-22T07:56:24.414Z,100888.31
2022-10-22T07:58:52.645Z,100892.47
2022-10-22T08:01:22.257Z,100898.59
2022-10-22T08:03:50.465Z,100904.41
2022-10-22T08:06:18.943Z,100904.66
2022-10-22T08:08:47.181Z,100909.56
2022-10-22T08:11:15.421Z,100904.88
2022-10-22T08:13:45.624Z,100914.19
2022-10-22T08:16:15.229Z,100917.31
2022-10-22T08:18:45.101Z,100928.00
2022-10-22T08:21:13.553Z,100925.69
2022-10-22T08:23:41.698Z,100932.22
2022-10-22T08:26:10.324Z,100935.00
2022-10-22T08:28:39.335Z,100942.16
2022-10-22T08:31:08.541Z,100949.47
2022-10-22T08:33:38.784Z,100951.03
2022-10-22T08:36:10.024Z,100942.22
2022-10-22T08:38:38.651Z,100952.53
2022-10-22T08:41:14.675Z,100953.88
2022-10-22T08:44:28.114Z,100949.66
2022-10-22T08:47:21.393Z,100955.03
2022-10-22T08:49:50.761Z,100959.69
2022-10-22T08:52:21.793Z,100961.97
2022-10-22T08:54:54.248Z,100963.47
2022-10-22T08:57:52.490Z,100967.75
2022-10-22T09:00:29.737Z,100964.16
2022-10-22T09:03:16.309Z,100972.94
2022-10-22T09:05:56.098Z,100980.59
2022-10-22T09:08:25.969Z,100974.41
2022-10-22T09:11:02.805Z,100975.50
2022-10-22T09:13:31.589Z,100981.09
2022-10-22T09:16:13.434Z,100979.66
2022-10-22T09:18:58.112Z,100992.31
2022-10-22T09:21:35.976Z,100995.13
2022-10-22T09:24:14.821Z,101002.16
2022-10-22T09:26:43.714Z,100994.28
2022-10-22T09:29:20.925Z,100992.59
2022-10-22T09:31:49.327Z,101003.56
2022-10-22T09:34:21.756Z,101014.34
2022-10-22T09:36:59.835Z,101003.41
2022-10-22T09:39:33.724Z,100996.88
2022-10-22T09:42:02.023Z,101004.09
2022-10-22T09:44:30.429Z,101005.88
2022-10-22T09:46:58.578Z,100998.06
2022-10-22T09:49:31.083Z,101002.03
2022-10-22T09:52:01.538Z,101012.97
2022-10-22T09:54:42.587Z,101003.78
2022-10-22T09:57:17.818Z,101004.97
2022-10-22T09:59:51.430Z,101004.28
2022-10-22T10:02:37.605Z,101016.94
2022-10-22T10:05:08.250Z,101019.94
2022-10-22T10:07:37.717Z,101023.47
2022-10-22T10:10:22.478Z,101032.84
2022-10-22T10:12:58.524Z,101035.91
2022-10-22T10:15:36.588Z,101041.25
2022-10-22T10:18:17.609Z,101029.06
2022-10-22T10:20:55.384Z,101038.75
2022-10-22T10:23:32.559Z,101046.56
2022-10-22T10:26:12.826Z,101044.28
2022-10-22T10:29:05.468Z,101047.97
2022-10-22T10:31:47.136Z,101043.41
2022-10-22T10:34:28.392Z,101049.25
2022-10-22T10:37:05.688Z,101057.03
2022-10-22T10:39:50.915Z,101042.75
2022-10-22T10:42:30.506Z,101060.25
2022-10-22T10:45:13.521Z,101054.53
2022-10-22T10:48:17.467Z,101057.94
2022-10-22T10:51:00.897Z,101052.84
2022-10-22T10:53:59.440Z,101057.47
2022-10-22T10:56:40.105Z,101061.72
2022-10-22T10:59:24.774Z,101059.38
2022-10-22T11:02:32.075Z,101061.53
2022-10-22T11:05:21.966Z,101066.16
2022-10-22T11:07:57.337Z,101070.94
2022-10-22T11:10:32.013Z,101074.00
2022-10-22T11:13:11.996Z,101068.25
2022-10-22T11:15:42.382Z,101071.41
2022-10-22T11:18:21.653Z,101069.50
2022-10-22T11:21:03.353Z,101076.53
2022-10-22T11:23:39.052Z,101077.34
2022-10-22T11:26:15.233Z,101082.03
2022-10-22T11:28:50.754Z,101081.28
2022-10-22T11:31:25.915Z,101083.19
2022-10-22T11:34:04.898Z,101080.94
2022-10-22T11:36:39.958Z,101083.75
2022-10-22T11:39:08.229Z,101085.41
2022-10-22T11:41:37.239Z,101086.28
2022-10-22T11:44:22.030Z,101087.34
2022-10-22T11:46:59.282Z,101088.50
2022-10-22T11:49:42.234Z,101087.88
2022-10-22T11:52:28.063Z,101070.66
2022-10-22T11:54:58.779Z,101085.75
2022-10-22T11:57:38.603Z,101085.22
2022-10-22T12:00:31.636Z,101079.63
2022-10-22T12:03:16.834Z,101077.59
2022-10-22T12:05:46.072Z,101079.31
2022-10-22T12:08:24.538Z,101079.34
2022-10-22T12:11:14.564Z,101079.91
2022-10-22T12:14:18.962Z,101082.00
2022-10-22T12:16:57.347Z,101086.16
2022-10-22T12:19:31.312Z,101076.97
2022-10-22T12:22:07.427Z,101068.28
2022-10-22T12:24:40.527Z,101070.03
2022-10-22T12:27:23.089Z,101067.13
2022-10-22T12:29:56.573Z,101061.63
2022-10-22T12:32:30.095Z,101053.78
2022-10-22T12:35:05.331Z,101065.56
2022-10-22T12:37:36.756Z,101057.78
2022-10-22T12:40:16.918Z,101066.13
2022-10-22T12:42:50.988Z,101060.28
2022-10-22T12:45:19.942Z,101054.69
2022-10-22T12:47:49.224Z,101054.44
2022-10-22T12:50:27.872Z,101057.22
2022-10-22T12:52:56.855Z,101063.06
2022-10-22T12:55:27.881Z,101053.59
2022-10-22T12:57:56.381Z,101054.88
2022-10-22T13:00:28.692Z,101057.78
2022-10-22T13:03:01.425Z,101056.09
2022-10-22T13:05:38.880Z,101060.03
2022-10-22T13:08:12.311Z,101060.66
2022-10-22T13:10:43.180Z,101063.75
2022-10-22T13:13:45.671Z,101073.09
2022-10-22T13:16:24.347Z,101068.41
2022-10-22T13:18:54.259Z,101075.41
2022-10-22T13:21:34.233Z,101076.06
2022-10-22T13:24:04.732Z,101073.94
2022-10-22T13:26:36.012Z,101074.28
2022-10-22T13:29:11.880Z,101070.38
2022-10-22T13:31:47.278Z,101077.03
2022-10-22T13:34:19.423Z,101076.28
2022-10-22T13:36:50.154Z,101086.94
2022-10-22T13:39:20.245Z,101089.66
2022-10-22T13:41:50.284Z,101082.06
2022-10-22T13:44:18.789Z,101082.09
2022-10-22T13:46:47.974Z,101078.22
2022-10-22T13:49:19.827Z,101077.03
2022-10-22T13:51:50.750Z,101082.94
2022-10-22T13:54:22.755Z,101081.69
2022-10-22T13:56:50.939Z,101082.38
2022-10-22T13:59:22.820Z,101089.91
2022-10-22T14:01:53.219Z,101087.44
2022-10-22T14:04:21.462Z,101082.09
2022-10-22T14:06:51.055Z,101084.28
2022-10-22T14:09:19.697Z,101088.53
2022-10-22T14:11:47.898Z,101086.84
2022-10-22T14:14:17.334Z,101093.03
2022-10-22T14:16:45.950Z,101084.56
2022-10-22T14:19:18.540Z,101091.84
2022-10-22T14:21:47.092Z,101089.63
2022-10-22T14:24:16.630Z,101077.06
2022-10-22T14:26:44.842Z,101075.66
2022-10-22T14:29:13.015Z,101071.78
2022-10-22T14:31:44.246Z,101064.72
2022-10-22T14:34:14.641Z,101075.13
2022-10-22T14:36:44.578Z,101069.25
2022-10-22T14:39:12.904Z,101074.28
2022-10-22T14:41:43.553Z,101068.97
2022-10-22T14:44:14.338Z,101081.53
2022-10-22T14:46:44.193Z,101078.09
2022-10-22T14:49:12.601Z,101085.69
2022-10-22T14:51:40.781Z,101087.91
2022-10-22T14:54:09.098Z,101084.03
2022-10-22T14:59:12.336Z,101081.84
2022-10-22T15:01:42.094Z,101084.00
2022-10-22T15:04:10.520Z,101092.13
2022-10-22T15:06:38.710Z,101089.41
2022-10-22T15:09:06.947Z,101089.97
2022-10-22T15:11:35.153Z,101089.94
2022-10-22T15:14:03.303Z,101093.53
2022-10-22T15:16:33.059Z,101106.63
2022-10-22T15:19:01.170Z,101102.16
2022-10-22T15:21:29.530Z,101095.38
2022-10-22T15:23:57.712Z,101090.06
2022-10-22T15:26:25.929Z,101100.25
2022-10-22T15:28:54.641Z,101105.31
2022-10-22T15:31:48.901Z,101101.97
2022-10-22T15:34:23.195Z,101096.94
2022-10-22T15:36:51.800Z,101096.94
2022-10-22T15:39:20.007Z,101102.25
2022-10-22T15:41:49.334Z,101101.13
2022-10-22T15:44:20.134Z,101106.44
2022-10-22T15:49:24.304Z,101108.69
2022-10-22T15:51:52.948Z,101104.19
2022-10-22T15:54:25.329Z,101106.44
2022-10-22T15:56:53.860Z,101107.78
2022-10-22T15:59:22.066Z,101114.22
2022-10-22T16:01:52.166Z,101117.56
2022-10-22T16:04:20.437Z,101125.41
2022-10-22T16:06:52.440Z,101120.94
2022-10-22T16:09:23.579Z,101124.03
2022-10-22T16:14:28.686Z,101126.22
2022-10-22T16:16:59.610Z,101123.72
2022-10-22T16:19:27.755Z,101120.06
2022-10-22T16:21:59.402Z,101124.00
2022-10-22T16:24:27.569Z,101123.13
2022-10-22T16:26:55.794Z,101121.19
2022-10-22T16:29:23.991Z,101124.81
2022-10-22T16:31:52.199Z,101113.63
2022-10-22T16:34:21.730Z,101118.34
2022-10-22T16:39:20.608Z,101119.72
2022-10-22T16:41:48.801Z,101119.19
2022-10-22T16:44:17.037Z,101114.16
2022-10-22T16:46:45.218Z,101119.69
2022-10-22T16:49:13.491Z,101109.94
2022-10-22T16:51:43.075Z,101116.63
2022-10-22T16:54:14.291Z,101122.50
2022-10-22T16:56:42.486Z,101121.13
2022-10-22T16:59:10.686Z,101132.06
2022-10-22T17:01:41.206Z,101141.84
2022-10-22T17:04:10.119Z,101137.94
2022-10-22T17:06:38.332Z,101147.75
2022-10-22T17:09:07.957Z,101149.97
2022-10-22T17:11:39.153Z,101148.03
2022-10-22T17:14:09.858Z,101153.59
2022-10-22T17:16:38.048Z,101148.88
2022-10-22T17:19:06.382Z,101150.59
2022-10-22T17:21:34.958Z,101145.00
2022-10-22T17:24:03.123Z,101146.69
2022-10-22T17:26:34.649Z,101148.09
2022-10-22T17:29:02.832Z,101150.59
2022-10-22T17:31:34.296Z,101154.78
2022-10-22T17:34:02.920Z,101155.91
2022-10-22T17:36:35.681Z,101156.47
2022-10-22T17:39:08.038Z,101157.88
2022-10-22T17:41:38.778Z,101150.63
2022-10-22T17:44:09.856Z,101157.06
2022-10-22T17:46:38.875Z,101169.34
2022-10-22T17:49:13.672Z,101167.13
2022-10-22T17:51:42.023Z,101162.34
2022-10-22T17:54:10.486Z,101167.41
2022-10-22T17:56:40.777Z,101164.03
2022-10-22T17:59:09.558Z,101161.81
2022-10-22T18:01:43.399Z,101165.16
2022-10-22T18:04:16.473Z,101164.63
2022-10-22T18:06:46.154Z,101165.72
2022-10-22T18:09:18.457Z,101165.72
2022-10-22T18:11:49.115Z,101161.22
2022-10-22T18:14:19.183Z,101159.56
2022-10-22T18:16:48.268Z,101151.19
2022-10-22T18:19:18.983Z,101155.09
2022-10-22T18:21:47.461Z,101161.25
2022-10-22T18:24:16.907Z,101170.19
2022-10-22T18:26:45.799Z,101168.22
2022-10-22T18:29:19.754Z,101159.59
2022-10-22T18:31:48.388Z,101160.97
2022-10-22T18:34:20.250Z,101163.75
2022-10-22T18:36:51.287Z,101160.41
2022-10-22T18:39:19.535Z,101158.44
2022-10-22T18:41:47.895Z,101156.50
2022-10-22T18:44:17.950Z,101159.56
2022-10-22T18:46:46.196Z,101156.78
2022-10-22T18:49:19.683Z,101151.75
2022-10-22T18:51:52.624Z,101159.31
2022-10-22T18:54:23.684Z,101161.81
2022-10-22T18:56:52.876Z,101162.91
2022-10-22T18:59:26.112Z,101169.91
2022-10-22T19:01:55.070Z,101158.47
2022-10-22T19:04:23.228Z,101167.69
2022-10-22T19:06:51.422Z,101166.84
2022-10-22T19:09:19.671Z,101172.16
2022-10-22T19:11:47.898Z,101183.06
2022-10-22T19:14:19.402Z,101169.66
2022-10-22T19:16:49.571Z,101167.69
2022-10-22T19:19:20.263Z,101168.22
2022-10-22T19:21:49.070Z,101169.06
2022-10-22T19:24:19.655Z,101164.88
2022-10-22T19:26:49.824Z,101152.84
2022-10-22T19:29:20.176Z,101146.41
2022-10-22T19:31:51.641Z,101149.78
2022-10-22T19:34:20.832Z,101142.22
2022-10-22T19:36:51.619Z,101141.13
2022-10-22T19:39:20.389Z,101147.84
2022-10-22T19:41:48.897Z,101145.03
2022-10-22T19:44:17.349Z,101146.13
2022-10-22T19:46:45.916Z,101147.25
2022-10-22T19:49:18.935Z,101146.69
2022-10-22T19:51:50.543Z,101147.25
2022-10-22T19:54:20.489Z,101148.09
2022-10-22T19:56:50.381Z,101149.47
2022-10-22T19:59:20.647Z,101150.06
2022-10-22T20:01:49.098Z,101157.34
2022-10-22T20:04:19.381Z,101158.44
2022-10-22T20:06:47.953Z,101152.28
2022-10-22T20:09:16.160Z,101164.34
2022-10-22T20:11:44.582Z,101161.25
2022-10-22T20:14:13.916Z,101155.91
2022-10-22T20:16:42.379Z,101150.34
2022-10-22T20:19:13.480Z,101151.16
2022-10-22T20:21:43.684Z,101151.44
2022-10-22T20:24:12.868Z,101152.84
2022-10-22T20:26:41.074Z,101146.13
2022-10-22T20:29:09.460Z,101149.50
2022-10-22T20:31:37.617Z,101158.19
2022-10-22T20:34:05.826Z,101160.41
2022-10-22T20:36:34.480Z,101166.84
2022-10-22T20:39:07.335Z,101161.81
2022-10-22T20:41:37.824Z,101162.91
2022-10-22T20:44:06.365Z,101159.00
2022-10-22T20:46:35.334Z,101161.25
2022-10-22T20:49:07.088Z,101153.13
2022-10-22T20:51:37.480Z,101157.88
2022-10-22T20:54:08.689Z,101148.09
2022-10-22T20:56:38.889Z,101149.50
2022-10-22T20:59:10.653Z,101145.59
2022-10-22T21:01:41.267Z,101146.16
2022-10-22T21:04:09.910Z,101141.38
2022-10-22T21:06:40.293Z,101144.75
2022-10-22T21:09:12.034Z,101149.22
2022-10-22T21:11:41.965Z,101154.81
2022-10-22T21:14:12.588Z,101162.91
2022-10-22T21:16:42.657Z,101154.25
2022-10-22T21:19:11.082Z,101160.41
2022-10-22T21:21:39.256Z,101158.16
2022-10-22T21:24:09.589Z,101157.31
2022-10-22T21:26:39.240Z,101164.31
2022-10-22T21:29:07.568Z,101160.66
2022-10-22T21:31:36.042Z,101161.78
2022-10-22T21:34:04.488Z,101169.88
2022-10-22T21:36:32.701Z,101165.16
2022-10-22T21:39:02.414Z,101163.19
2022-10-22T21:41:32.029Z,101158.72
2022-10-22T21:44:00.601Z,101155.06
2022-10-22T21:46:29.981Z,101159.56
2022-10-22T21:49:01.456Z,101155.06
2022-10-22T21:51:32.435Z,101159.53
2022-10-22T21:54:01.153Z,101165.94
2022-10-22T21:56:33.171Z,101166.75
2022-10-22T21:59:02.246Z,101172.63
2022-10-22T22:01:30.525Z,101164.53
2022-10-22T22:03:59.414Z,101158.66
2022-10-22T22:06:30.810Z,101165.06
2022-10-22T22:09:01.745Z,101157.53
2022-10-22T22:11:32.117Z,101161.72
2022-10-22T22:14:00.704Z,101153.03
2022-10-22T22:16:31.584Z,101149.97
2022-10-22T22:19:01.702Z,101149.41
2022-10-22T22:21:30.801Z,101140.75
2022-10-22T22:23:59.729Z,101141.84
2022-10-22T22:26:31.561Z,101147.13
2022-10-22T22:29:01.200Z,101149.09
2022-10-22T22:31:32.628Z,101147.72
2022-10-22T22:34:02.615Z,101136.81
2022-10-22T22:36:36.254Z,101144.09
2022-10-22T22:39:06.087Z,101140.13
2022-10-22T22:41:35.886Z,101144.34
2022-10-22T22:44:04.162Z,101139.59
2022-10-22T22:46:32.651Z,101143.50
2022-10-22T22:49:00.844Z,101144.34
2022-10-22T22:51:29.221Z,101144.06
2022-10-22T22:54:00.230Z,101145.44
2022-10-22T22:56:31.629Z,101144.34
2022-10-22T22:59:01.312Z,101150.50
2022-10-22T23:01:32.629Z,101149.69
2022-10-22T23:04:04.161Z,101142.38
2022-10-22T23:06:35.886Z,101132.88
2022-10-22T23:09:05.764Z,101136.25
2022-10-22T23:11:34.484Z,101128.69
2022-10-22T23:14:06.879Z,101125.34
2022-10-22T23:16:37.298Z,101129.22
2022-10-22T23:19:06.506Z,101128.69
2022-10-22T23:21:38.467Z,101126.72
2022-10-22T23:24:10.155Z,101124.78
2022-10-22T23:26:41.799Z,101118.31
2022-10-22T23:29:15.093Z,101120.56
2022-10-22T23:31:44.337Z,101123.66
2022-10-22T23:34:15.259Z,101121.41
2022-10-22T23:36:43.545Z,101114.69
2022-10-22T23:39:15.185Z,101114.44
2022-10-22T23:41:43.397Z,101116.66
2022-10-22T23:44:13.401Z,101112.72
2022-10-22T23:46:41.634Z,101116.06
2022-10-22T23:49:11.526Z,101107.97
2022-10-22T23:51:40.657Z,101103.50
2022-10-22T23:54:13.243Z,101100.41
2022-10-22T23:56:41.444Z,101100.97
2022-10-22T23:59:10.201Z,101108.22
